Time;durP1;ratioP1;P1;durP2;ratioP2;P2;SDS_P1;SDS_P2;PMS_P1;PMS_P2;Temp;Humidity;BMP_temperature;BMP_pressure;BME280_temperature;BME280_humidity;BME280_pressure;Samples;Min_cycle;Max_cycle;Signal;HPM_P1;HPM_P2
2022/06/12 00:00:19;;;;;;;24.49;15.38;;;;;;;;;;353721;150;863897;-58
2022/06/12 00:01:21;;;;;;;24.51;15.48;;;;;;;;;;352419;148;865315;-57
2022/06/12 00:02:23;;;;;;;23.71;15.66;;;;;;;;;;355683;148;864760;-58
2022/06/12 00:03:25;;;;;;;25.19;15.83;;;;;;;;;;353770;150;866694;-58
2022/06/12 00:04:27;;;;;;;27.85;15.69;;;;;;;;;;354404;149;856940;-58
2022/06/12 00:05:30;;;;;;;23.22;15.29;;;;;;;;;;353306;149;857740;-57
2022/06/12 00:06:32;;;;;;;28.62;15.83;;;;;;;;;;353930;150;864528;-58
2022/06/12 00:07:33;;;;;;;30.11;15.53;;;;;;;;;;353209;148;857249;-57
2022/06/12 00:08:35;;;;;;;27.20;15.06;;;;;;;;;;353793;150;859701;-57
2022/06/12 00:09:37;;;;;;;26.69;15.23;;;;;;;;;;354368;150;857321;-58
2022/06/12 00:10:40;;;;;;;27.72;15.18;;;;;;;;;;354511;150;857480;-58
2022/06/12 00:11:42;;;;;;;35.55;16.76;;;;;;;;;;353639;150;857406;-57
2022/06/12 00:12:45;;;;;;;24.07;15.61;;;;;;;;;;354378;148;857543;-57
2022/06/12 00:13:50;;;;;;;27.54;16.49;;;;;;;;;;353962;148;859351;-57
2022/06/12 00:14:52;;;;;;;28.96;15.58;;;;;;;;;;352196;150;857658;-58
2022/06/12 00:15:54;;;;;;;28.29;16.14;;;;;;;;;;354281;148;858828;-57
2022/06/12 00:16:56;;;;;;;23.94;15.87;;;;;;;;;;354308;150;861855;-58
2022/06/12 00:17:58;;;;;;;26.01;16.89;;;;;;;;;;354828;150;859094;-57
2022/06/12 00:19:00;;;;;;;34.35;17.35;;;;;;;;;;354582;150;857383;-58
2022/06/12 00:20:03;;;;;;;25.91;16.16;;;;;;;;;;354200;150;859630;-58
2022/06/12 00:21:10;;;;;;;28.08;16.27;;;;;;;;;;353401;150;860833;-58
2022/06/12 00:22:12;;;;;;;25.04;15.96;;;;;;;;;;354934;148;859426;-58
2022/06/12 00:23:14;;;;;;;28.31;17.44;;;;;;;;;;355888;150;859680;-58
2022/06/12 00:24:17;;;;;;;24.21;15.64;;;;;;;;;;352633;150;857404;-57
2022/06/12 00:25:20;;;;;;;26.07;16.53;;;;;;;;;;353829;149;859746;-58
2022/06/12 00:26:24;;;;;;;25.43;16.89;;;;;;;;;;353665;148;859623;-58
2022/06/12 00:27:25;;;;;;;23.54;15.48;;;;;;;;;;353817;148;857482;-58
2022/06/12 00:28:27;;;;;;;28.59;16.41;;;;;;;;;;351534;150;857098;-57
2022/06/12 00:29:29;;;;;;;28.25;16.64;;;;;;;;;;357784;146;857396;-57
2022/06/12 00:30:31;;;;;;;29.31;16.45;;;;;;;;;;357988;147;859281;-58
2022/06/12 00:31:33;;;;;;;26.21;16.60;;;;;;;;;;349938;150;864944;-58
2022/06/12 00:32:35;;;;;;;27.03;16.08;;;;;;;;;;354968;148;857212;-58
2022/06/12 00:33:37;;;;;;;29.52;16.86;;;;;;;;;;355564;148;857336;-58
2022/06/12 00:34:41;;;;;;;32.19;17.50;;;;;;;;;;353311;149;859301;-58
2022/06/12 00:35:42;;;;;;;27.95;16.08;;;;;;;;;;353541;148;857373;-58
2022/06/12 00:36:44;;;;;;;28.85;16.67;;;;;;;;;;355462;148;857837;-58
2022/06/12 00:37:46;;;;;;;25.55;16.01;;;;;;;;;;353910;150;865806;-57
2022/06/12 00:38:47;;;;;;;26.28;16.22;;;;;;;;;;354670;147;858596;-57
2022/06/12 00:39:50;;;;;;;27.56;16.67;;;;;;;;;;354763;147;859244;-58
2022/06/12 00:40:52;;;;;;;24.75;15.66;;;;;;;;;;354576;148;857498;-59
2022/06/12 00:41:54;;;;;;;30.45;16.09;;;;;;;;;;356464;147;857349;-59
2022/06/12 00:42:57;;;;;;;25.04;15.75;;;;;;;;;;355320;148;857252;-59
2022/06/12 00:43:58;;;;;;;30.42;16.06;;;;;;;;;;356147;147;857355;-59
2022/06/12 00:45:00;;;;;;;26.64;15.98;;;;;;;;;;349426;149;857447;-57
2022/06/12 00:46:03;;;;;;;26.29;16.51;;;;;;;;;;354396;149;857303;-58
2022/06/12 00:47:06;;;;;;;26.85;15.19;;;;;;;;;;352283;149;857300;-58
2022/06/12 00:48:10;;;;;;;24.35;15.54;;;;;;;;;;352803;150;865690;-57
2022/06/12 00:49:16;;;;;;;25.52;15.61;;;;;;;;;;355238;148;861064;-58
2022/06/12 00:50:18;;;;;;;26.08;15.44;;;;;;;;;;352371;149;857413;-58
2022/06/12 00:51:21;;;;;;;27.17;15.29;;;;;;;;;;358354;147;856912;-58
2022/06/12 00:52:35;;;;;;;25.54;14.69;;;;;;;;;;351260;149;865537;-57
2022/06/12 00:53:39;;;;;;;26.79;15.31;;;;;;;;;;354450;149;857761;-58
2022/06/12 00:54:41;;;;;;;27.22;15.40;;;;;;;;;;351735;150;859860;-57
2022/06/12 00:55:44;;;;;;;22.05;13.51;;;;;;;;;;351136;150;857547;-58
2022/06/12 00:56:47;;;;;;;25.86;15.81;;;;;;;;;;356798;147;860109;-58
2022/06/12 00:57:49;;;;;;;27.22;15.31;;;;;;;;;;354858;147;867759;-57
2022/06/12 00:58:51;;;;;;;24.49;14.46;;;;;;;;;;356053;147;857394;-57
2022/06/12 00:59:54;;;;;;;23.68;14.33;;;;;;;;;;356709;147;857289;-58
2022/06/12 01:00:56;;;;;;;20.41;13.06;;;;;;;;;;357309;147;865863;-59
2022/06/12 01:01:58;;;;;;;24.82;14.99;;;;;;;;;;356472;147;858902;-58
2022/06/12 01:02:59;;;;;;;22.65;14.61;;;;;;;;;;356297;147;864800;-57
2022/06/12 01:06:43;;;;;;;22.72;14.51;;;;;;;;;;351701;150;865414;-58
2022/06/12 01:07:45;;;;;;;23.35;14.01;;;;;;;;;;352230;150;859146;-59
2022/06/12 01:08:47;;;;;;;24.55;13.58;;;;;;;;;;353354;149;857848;-57
2022/06/12 01:09:50;;;;;;;21.51;13.57;;;;;;;;;;357001;147;860382;-59
2022/06/12 01:10:54;;;;;;;22.43;13.90;;;;;;;;;;355192;147;857346;-58
2022/06/12 01:11:56;;;;;;;19.88;13.60;;;;;;;;;;354330;149;857266;-58
2022/06/12 01:12:59;;;;;;;20.24;13.36;;;;;;;;;;353259;150;857437;-58
2022/06/12 01:14:00;;;;;;;18.62;13.86;;;;;;;;;;356701;147;857341;-58
2022/06/12 01:15:04;;;;;;;23.30;13.87;;;;;;;;;;350381;150;866371;-57
2022/06/12 01:16:10;;;;;;;20.53;13.38;;;;;;;;;;356501;147;857361;-58
2022/06/12 01:17:12;;;;;;;20.31;13.34;;;;;;;;;;352091;149;858521;-58
2022/06/12 01:18:14;;;;;;;24.69;14.17;;;;;;;;;;352986;149;857378;-58
2022/06/12 01:19:18;;;;;;;19.93;13.59;;;;;;;;;;352301;149;864861;-58
2022/06/12 01:20:20;;;;;;;20.24;13.09;;;;;;;;;;357777;148;856487;-57
2022/06/12 01:21:23;;;;;;;17.61;13.05;;;;;;;;;;351746;149;857430;-56
2022/06/12 01:22:42;;;;;;;18.47;11.98;;;;;;;;;;350427;150;857721;-58
2022/06/12 01:23:46;;;;;;;16.05;12.69;;;;;;;;;;358884;147;857501;-57
2022/06/12 01:24:55;;;;;;;20.28;13.14;;;;;;;;;;355707;147;857258;-58
2022/06/12 01:26:17;;;;;;;16.46;11.71;;;;;;;;;;355101;147;857360;-58
2022/06/12 01:27:21;;;;;;;21.43;12.49;;;;;;;;;;354063;150;857395;-59
2022/06/12 01:28:41;;;;;;;21.23;13.56;;;;;;;;;;354974;147;859155;-57
2022/06/12 01:29:57;;;;;;;23.09;13.14;;;;;;;;;;355552;150;859614;-57
2022/06/12 01:31:03;;;;;;;17.02;12.30;;;;;;;;;;355509;148;859094;-58
2022/06/12 01:32:07;;;;;;;19.61;12.08;;;;;;;;;;354621;147;858714;-58
2022/06/12 01:33:29;;;;;;;18.58;11.97;;;;;;;;;;352516;147;857333;-56
2022/06/12 01:34:33;;;;;;;18.09;11.57;;;;;;;;;;354447;144;864069;-59
2022/06/12 01:35:46;;;;;;;17.92;11.64;;;;;;;;;;360140;147;857922;-59
2022/06/12 01:36:50;;;;;;;18.99;11.68;;;;;;;;;;359562;146;858352;-56
2022/06/12 01:37:56;;;;;;;16.91;10.61;;;;;;;;;;359101;147;857268;-58
2022/06/12 01:39:12;;;;;;;16.44;11.71;;;;;;;;;;358763;147;857244;-57
2022/06/12 01:40:23;;;;;;;16.57;12.17;;;;;;;;;;358039;148;859196;-58
2022/06/12 01:41:33;;;;;;;16.94;11.56;;;;;;;;;;361796;147;856728;-58
2022/06/12 01:42:46;;;;;;;14.70;11.40;;;;;;;;;;359964;147;865567;-59
2022/06/12 01:43:49;;;;;;;20.21;12.03;;;;;;;;;;361145;147;859944;-58
2022/06/12 01:44:53;;;;;;;16.63;10.67;;;;;;;;;;359301;147;859055;-58
2022/06/12 01:46:05;;;;;;;16.27;11.71;;;;;;;;;;359597;147;857446;-57
2022/06/12 01:47:20;;;;;;;16.18;11.41;;;;;;;;;;359200;147;857338;-58
2022/06/12 01:48:25;;;;;;;19.38;12.84;;;;;;;;;;360440;147;857422;-57
2022/06/12 01:49:29;;;;;;;19.83;13.53;;;;;;;;;;354170;149;860285;-58
2022/06/12 01:50:35;;;;;;;20.70;13.10;;;;;;;;;;353223;150;865516;-58
2022/06/12 01:51:41;;;;;;;17.18;11.63;;;;;;;;;;362213;147;865975;-58
2022/06/12 01:52:45;;;;;;;18.34;13.07;;;;;;;;;;353146;150;859225;-58
2022/06/12 01:53:52;;;;;;;23.12;13.79;;;;;;;;;;346664;151;859039;-57
2022/06/12 01:54:55;;;;;;;22.68;13.49;;;;;;;;;;359853;147;858222;-57
2022/06/12 01:56:02;;;;;;;19.61;13.01;;;;;;;;;;358720;147;857233;-57
2022/06/12 01:57:09;;;;;;;20.84;13.19;;;;;;;;;;360762;147;859292;-57
2022/06/12 01:58:18;;;;;;;21.25;13.24;;;;;;;;;;358585;147;857378;-58
2022/06/12 01:59:21;;;;;;;16.73;11.82;;;;;;;;;;353516;150;857486;-58
2022/06/12 02:00:23;;;;;;;20.24;12.27;;;;;;;;;;359786;147;858811;-58
2022/06/12 02:01:27;;;;;;;16.23;11.39;;;;;;;;;;354463;150;857870;-58
2022/06/12 02:02:36;;;;;;;18.04;13.19;;;;;;;;;;359279;147;865984;-58
2022/06/12 02:03:45;;;;;;;22.12;12.77;;;;;;;;;;359214;147;859018;-58
2022/06/12 02:05:06;;;;;;;18.11;12.34;;;;;;;;;;356781;147;858239;-58
2022/06/12 02:06:19;;;;;;;17.44;11.99;;;;;;;;;;359262;147;858431;-58
2022/06/12 02:07:22;;;;;;;23.76;13.30;;;;;;;;;;359885;147;858651;-57
2022/06/12 02:08:26;;;;;;;19.29;11.91;;;;;;;;;;359793;147;859703;-57
2022/06/12 02:09:32;;;;;;;18.27;12.75;;;;;;;;;;359763;147;859007;-57
2022/06/12 02:10:38;;;;;;;23.11;13.65;;;;;;;;;;353528;150;858157;-57
2022/06/12 02:13:13;;;;;;;18.43;12.68;;;;;;;;;;361404;147;857302;-57
2022/06/12 02:14:16;;;;;;;21.68;12.88;;;;;;;;;;358958;147;857749;-58
2022/06/12 02:15:22;;;;;;;15.96;10.39;;;;;;;;;;360565;147;857448;-57
2022/06/12 02:16:26;;;;;;;14.67;10.88;;;;;;;;;;359217;147;857704;-58
2022/06/12 02:17:32;;;;;;;16.04;10.84;;;;;;;;;;360368;147;857484;-58
2022/06/12 02:18:38;;;;;;;14.51;10.68;;;;;;;;;;354582;150;857440;-59
2022/06/12 02:19:40;;;;;;;15.02;11.14;;;;;;;;;;353139;150;859023;-58
2022/06/12 02:20:43;;;;;;;16.79;10.31;;;;;;;;;;357181;147;857383;-59
2022/06/12 02:21:53;;;;;;;16.28;9.61;;;;;;;;;;360519;147;857386;-58
2022/06/12 02:22:55;;;;;;;15.09;10.43;;;;;;;;;;353250;150;858907;-58
2022/06/12 02:24:07;;;;;;;13.24;10.94;;;;;;;;;;352751;150;859038;-58
2022/06/12 02:25:13;;;;;;;13.95;10.39;;;;;;;;;;359327;147;865434;-58
2022/06/12 02:26:16;;;;;;;13.67;10.42;;;;;;;;;;358529;145;858203;-58
2022/06/12 02:27:19;;;;;;;15.36;9.45;;;;;;;;;;359382;147;857381;-58
2022/06/12 02:28:22;;;;;;;11.94;9.81;;;;;;;;;;359664;147;856603;-58
2022/06/12 02:29:25;;;;;;;14.58;10.14;;;;;;;;;;360941;147;865066;-56
2022/06/12 02:30:28;;;;;;;15.92;10.49;;;;;;;;;;353969;150;856618;-57
2022/06/12 02:31:32;;;;;;;15.04;10.14;;;;;;;;;;361952;147;859077;-58
2022/06/12 02:32:47;;;;;;;15.70;10.80;;;;;;;;;;361317;147;858089;-57
2022/06/12 02:33:50;;;;;;;14.32;10.12;;;;;;;;;;352148;150;858700;-58
2022/06/12 02:34:54;;;;;;;14.24;10.76;;;;;;;;;;354037;150;857261;-57
2022/06/12 02:35:57;;;;;;;15.96;10.82;;;;;;;;;;359623;147;859395;-59
2022/06/12 02:37:01;;;;;;;19.23;12.02;;;;;;;;;;357472;148;857907;-58
2022/06/12 02:38:04;;;;;;;18.34;11.32;;;;;;;;;;359091;147;858884;-58
2022/06/12 02:39:23;;;;;;;17.95;11.85;;;;;;;;;;359403;147;857344;-57
2022/06/12 02:40:27;;;;;;;17.59;12.12;;;;;;;;;;358234;147;856772;-58
2022/06/12 02:41:34;;;;;;;16.71;11.62;;;;;;;;;;360419;146;856747;-58
2022/06/12 02:42:37;;;;;;;17.72;11.64;;;;;;;;;;358625;147;857310;-58
2022/06/12 02:43:40;;;;;;;23.48;13.06;;;;;;;;;;360367;147;857295;-57
2022/06/12 02:44:47;;;;;;;15.17;11.69;;;;;;;;;;352690;149;858761;-58
2022/06/12 02:45:50;;;;;;;19.24;12.03;;;;;;;;;;354031;149;864976;-58
2022/06/12 02:46:56;;;;;;;14.62;10.57;;;;;;;;;;359834;147;857257;-58
2022/06/12 02:47:58;;;;;;;14.41;10.43;;;;;;;;;;359956;147;866124;-58
2022/06/12 02:48:59;;;;;;;15.26;11.34;;;;;;;;;;353363;149;857334;-57
2022/06/12 02:50:01;;;;;;;14.78;10.01;;;;;;;;;;354618;149;864940;-57
2022/06/12 02:51:13;;;;;;;14.13;9.34;;;;;;;;;;351964;150;859048;-57
2022/06/12 02:52:20;;;;;;;15.09;10.60;;;;;;;;;;359839;147;866766;-58
2022/06/12 02:53:24;;;;;;;15.70;10.87;;;;;;;;;;359824;147;857383;-57
2022/06/12 02:54:44;;;;;;;16.74;11.16;;;;;;;;;;359067;147;857395;-58
2022/06/12 02:55:54;;;;;;;14.90;11.15;;;;;;;;;;358637;147;858755;-58
2022/06/12 02:57:07;;;;;;;13.82;10.91;;;;;;;;;;359904;147;857315;-58
2022/06/12 02:58:17;;;;;;;17.87;11.33;;;;;;;;;;358770;147;857170;-58
2022/06/12 02:59:21;;;;;;;12.83;10.74;;;;;;;;;;353068;150;857658;-58
2022/06/12 03:00:24;;;;;;;13.99;10.40;;;;;;;;;;353284;149;857446;-58
2022/06/12 03:01:28;;;;;;;12.10;10.41;;;;;;;;;;359703;146;865119;-57
2022/06/12 03:02:32;;;;;;;11.89;10.14;;;;;;;;;;358301;147;864216;-58
2022/06/12 03:03:54;;;;;;;13.47;10.42;;;;;;;;;;352943;150;857690;-58
2022/06/12 03:04:57;;;;;;;12.93;10.18;;;;;;;;;;359479;147;865037;-58
2022/06/12 03:05:59;;;;;;;15.00;10.32;;;;;;;;;;353945;148;857427;-57
2022/06/12 03:07:01;;;;;;;12.28;10.04;;;;;;;;;;361397;146;857367;-57
2022/06/12 03:08:04;;;;;;;13.60;10.10;;;;;;;;;;354321;150;858112;-57
2022/06/12 03:09:05;;;;;;;13.88;9.53;;;;;;;;;;360651;147;857239;-57
2022/06/12 03:10:08;;;;;;;15.92;10.44;;;;;;;;;;361034;147;864907;-58
2022/06/12 03:11:27;;;;;;;13.49;9.99;;;;;;;;;;353499;149;857337;-57
2022/06/12 03:12:28;;;;;;;12.17;9.78;;;;;;;;;;360011;147;857011;-57
2022/06/12 03:13:30;;;;;;;12.90;9.91;;;;;;;;;;361065;147;857262;-57
2022/06/12 03:14:32;;;;;;;11.95;9.93;;;;;;;;;;362132;147;865074;-58
2022/06/12 03:15:35;;;;;;;10.33;9.09;;;;;;;;;;361444;147;866333;-56
2022/06/12 03:16:39;;;;;;;15.63;10.28;;;;;;;;;;360944;147;857348;-57
2022/06/12 03:17:41;;;;;;;12.94;9.99;;;;;;;;;;354632;148;857389;-58
2022/06/12 03:18:48;;;;;;;12.56;9.73;;;;;;;;;;360911;147;857342;-56
2022/06/12 03:19:51;;;;;;;11.63;9.52;;;;;;;;;;359968;147;858234;-56
2022/06/12 03:21:12;;;;;;;11.44;9.52;;;;;;;;;;356841;148;857300;-56
2022/06/12 03:22:15;;;;;;;11.53;9.44;;;;;;;;;;358817;148;858691;-57
2022/06/12 03:23:35;;;;;;;12.69;9.62;;;;;;;;;;361213;147;865839;-57
2022/06/12 03:24:45;;;;;;;12.44;10.01;;;;;;;;;;360310;147;856282;-57
2022/06/12 03:25:50;;;;;;;15.05;9.94;;;;;;;;;;360938;147;857369;-58
2022/06/12 03:26:57;;;;;;;12.58;9.84;;;;;;;;;;359226;147;859175;-56
2022/06/12 03:28:06;;;;;;;10.73;9.06;;;;;;;;;;356056;148;857686;-58
2022/06/12 03:29:13;;;;;;;12.77;10.38;;;;;;;;;;353049;150;857482;-56
2022/06/12 03:42:39;;;;;;;20.12;9.42;;;;;;;21.86;58.63;99616.92;373697;142;881487;-57
2022/06/12 03:43:51;;;;;;;14.55;9.96;;;;;;;21.76;58.70;99626.32;365971;144;857516;-58
2022/06/12 03:44:57;;;;;;;13.09;9.31;;;;;;;21.71;58.85;99618.67;368270;144;859026;-59
2022/06/12 03:46:28;;;;;;;13.81;10.72;;;;;;;21.68;58.93;99626.77;369615;144;856508;-58
2022/06/12 03:47:34;;;;;;;15.22;9.93;;;;;;;21.66;59.01;99616.33;366135;144;857395;-58
2022/06/12 03:48:45;;;;;;;15.36;9.95;;;;;;;21.68;59.18;99618.86;366941;144;857303;-58
2022/06/12 03:50:08;;;;;;;16.31;10.74;;;;;;;21.68;58.99;99619.72;368612;144;857288;-59
2022/06/12 03:51:19;;;;;;;12.65;10.06;;;;;;;21.71;59.20;99619.54;370898;144;858519;-59
2022/06/12 03:52:28;;;;;;;11.23;10.02;;;;;;;21.72;59.18;99623.01;368249;144;856430;-58
2022/06/12 03:53:40;;;;;;;13.23;10.22;;;;;;;21.74;59.30;99626.43;366207;144;856628;-58
2022/06/12 03:55:05;;;;;;;15.23;10.36;;;;;;;21.73;59.44;99622.93;367782;144;857208;-59
2022/06/12 03:57:53;;;;;;;12.27;9.83;;;;;;;21.81;59.55;99626.89;366862;144;858615;-58
2022/06/12 03:59:10;;;;;;;15.37;10.83;;;;;;;21.74;60.19;99623.80;370331;144;857242;-59
2022/06/12 04:00:22;;;;;;;18.88;10.68;;;;;;;21.74;59.56;99627.27;366436;144;857293;-59
2022/06/12 04:01:24;;;;;;;14.25;10.16;;;;;;;21.81;59.75;99632.16;356845;144;859188;-57
2022/06/12 04:02:26;;;;;;;12.06;10.53;;;;;;;21.69;60.06;99626.69;362406;146;857873;-56
2022/06/12 04:03:35;;;;;;;13.15;11.05;;;;;;;21.73;59.93;99630.83;362773;147;856804;-57
2022/06/12 04:04:37;;;;;;;15.16;10.72;;;;;;;21.77;59.83;99630.66;363839;145;859076;-57
2022/06/12 04:05:58;;;;;;;13.49;10.47;;;;;;;21.74;60.02;99631.70;362875;147;859014;-57
2022/06/12 04:07:00;;;;;;;13.63;10.78;;;;;;;21.75;60.04;99636.03;364805;146;857291;-59
2022/06/12 04:08:02;;;;;;;12.78;10.13;;;;;;;21.70;60.42;99636.29;355002;148;857334;-59
2022/06/12 04:09:06;;;;;;;13.32;10.47;;;;;;;21.74;60.43;99629.89;358820;147;861086;-60
2022/06/12 04:10:09;;;;;;;12.34;10.29;;;;;;;21.79;60.27;99632.27;362750;147;859161;-59
2022/06/12 04:11:12;;;;;;;16.17;10.87;;;;;;;21.82;60.06;99631.22;362191;145;858271;-58
2022/06/12 04:12:18;;;;;;;16.51;11.58;;;;;;;21.74;60.44;99632.53;362376;145;858963;-58
2022/06/12 04:13:20;;;;;;;14.79;10.58;;;;;;;21.78;60.15;99635.84;363541;145;856365;-60
2022/06/12 04:14:25;;;;;;;13.82;10.61;;;;;;;21.83;60.23;99631.14;363679;146;856520;-61
2022/06/12 04:15:30;;;;;;;15.56;11.32;;;;;;;21.89;60.33;99633.41;363758;145;863921;-60
2022/06/12 04:16:41;;;;;;;14.07;10.89;;;;;;;21.96;60.02;99631.23;364399;145;856899;-59
2022/06/12 04:17:42;;;;;;;14.56;10.87;;;;;;;21.98;60.03;99637.26;363432;146;856320;-59
2022/06/12 04:18:44;;;;;;;11.73;10.34;;;;;;;22.01;60.12;99637.08;365094;145;856467;-60
2022/06/12 04:20:04;;;;;;;15.44;11.65;;;;;;;22.04;59.93;99638.69;362850;145;856506;-60
2022/06/12 04:21:12;;;;;;;14.04;10.71;;;;;;;22.07;60.00;99638.50;362999;146;863877;-60
2022/06/12 04:22:14;;;;;;;12.42;10.46;;;;;;;22.12;59.81;99644.34;362424;146;857156;-59
2022/06/12 04:23:37;;;;;;;14.74;11.27;;;;;;;22.12;59.60;99641.70;362941;146;856331;-61
2022/06/12 04:24:46;;;;;;;12.09;10.73;;;;;;;22.12;59.89;99651.39;362833;146;863796;-59
2022/06/12 04:25:56;;;;;;;15.88;10.99;;;;;;;22.03;60.25;99647.54;364577;145;856468;-60
2022/06/12 04:27:00;;;;;;;17.09;11.18;;;;;;;22.08;60.05;99647.24;364266;145;856310;-59
2022/06/12 04:28:04;;;;;;;14.44;10.61;;;;;;;22.13;59.88;99639.90;362861;145;856457;-57
2022/06/12 04:29:12;;;;;;;15.22;11.22;;;;;;;22.15;59.81;99646.79;364218;145;864394;-58
2022/06/12 04:30:27;;;;;;;12.93;10.19;;;;;;;22.18;59.68;99651.02;364627;145;856885;-59
2022/06/12 04:31:30;;;;;;;15.44;10.86;;;;;;;22.18;59.80;99651.02;360731;147;856513;-60
2022/06/12 04:32:31;;;;;;;14.24;10.61;;;;;;;22.19;60.00;99652.70;366161;145;856432;-60
2022/06/12 04:33:56;;;;;;;17.24;10.30;;;;;;;22.22;59.93;99654.33;362657;147;863847;-60
2022/06/12 04:34:58;;;;;;;14.53;10.32;;;;;;;22.20;59.99;99651.77;363007;147;863891;-59
2022/06/12 04:36:01;;;;;;;16.88;10.79;;;;;;;22.24;59.79;99648.00;366245;145;856951;-59
2022/06/12 04:37:05;;;;;;;12.99;10.31;;;;;;;;;;364076;147;857086;-60
2022/06/12 04:38:06;;;;;;;16.21;10.77;;;;;;;;;;353114;150;863676;-58
2022/06/12 04:39:08;;;;;;;11.98;10.69;;;;;;;;;;362898;146;857002;-60
2022/06/12 04:40:12;;;;;;;13.61;10.95;;;;;;;;;;363773;145;864478;-60
2022/06/12 04:41:16;;;;;;;14.48;10.40;;;;;;;;;;362486;146;856482;-59
2022/06/12 04:42:19;;;;;;;11.73;10.23;;;;;;;;;;352544;150;856294;-60
2022/06/12 04:43:21;;;;;;;12.36;9.86;;;;;;;;;;347020;153;856425;-60
2022/06/12 04:44:23;;;;;;;15.55;10.28;;;;;;;;;;350613;150;856588;-58
2022/06/12 04:45:24;;;;;;;12.84;10.75;;;;;;;;;;351299;151;857500;-62
2022/06/12 04:46:26;;;;;;;12.31;10.65;;;;;;;;;;350587;151;857246;-57
2022/06/12 04:47:28;;;;;;;11.99;10.06;;;;;;;;;;342280;155;864058;-59
2022/06/12 04:48:32;;;;;;;11.97;10.06;;;;;;;;;;352376;149;864919;-58
2022/06/12 04:49:34;;;;;;;13.89;9.96;;;;;;;;;;359672;146;856483;-57
2022/06/12 04:50:36;;;;;;;11.25;10.03;;;;;;;;;;360240;147;857859;-59
2022/06/12 04:51:37;;;;;;;11.36;9.96;;;;;;;;;;357783;148;857731;-64
2022/06/12 04:52:39;;;;;;;15.26;10.21;;;;;;;;;;358820;147;857308;-58
2022/06/12 04:53:41;;;;;;;13.01;10.46;;;;;;;;;;359916;149;859074;-59
2022/06/12 04:54:42;;;;;;;15.41;11.10;;;;;;;;;;356448;147;857167;-61
2022/06/12 04:55:44;;;;;;;12.94;10.02;;;;;;;;;;358606;147;857415;-59
2022/06/12 04:56:46;;;;;;;14.56;9.92;;;;;;;;;;358370;148;866720;-63
2022/06/12 04:57:47;;;;;;;14.38;10.38;;;;;;;;;;358313;146;866331;-62
2022/06/12 04:58:49;;;;;;;15.79;10.36;;;;;;;;;;360395;148;857339;-63
2022/06/12 04:59:51;;;;;;;14.58;11.20;;;;;;;;;;351387;151;857402;-62
2022/06/12 05:00:53;;;;;;;12.81;10.59;;;;;;;;;;346862;152;868560;-63
2022/06/12 05:01:54;;;;;;;13.05;10.28;;;;;;;;;;346402;152;865551;-62
2022/06/12 05:02:56;;;;;;;10.86;9.76;;;;;;;;;;346782;152;864050;-62
2022/06/12 05:03:58;;;;;;;12.37;9.89;;;;;;;;;;339614;155;859774;-63
2022/06/12 05:04:59;;;;;;;11.04;9.75;;;;;;;;;;351646;149;857357;-63
2022/06/12 05:06:01;;;;;;;12.11;10.31;;;;;;;;;;358714;147;858952;-61
2022/06/12 05:07:03;;;;;;;13.15;10.49;;;;;;;;;;356662;147;857498;-62
2022/06/12 05:08:04;;;;;;;13.34;9.77;;;;;;;;;;357543;149;864951;-59
2022/06/12 05:09:07;;;;;;;14.74;9.46;;;;;;;;;;357470;147;857358;-61
2022/06/12 05:10:10;;;;;;;15.28;9.67;;;;;;;;;;357316;147;857382;-60
2022/06/12 05:11:12;;;;;;;15.86;10.49;;;;;;;;;;357664;148;865637;-60
2022/06/12 05:12:13;;;;;;;15.34;10.06;;;;;;;;;;358570;149;857382;-60
2022/06/12 05:13:15;;;;;;;11.96;10.04;;;;;;;;;;360873;148;865771;-61
2022/06/12 05:14:17;;;;;;;16.05;9.77;;;;;;;;;;355945;147;857464;-62
2022/06/12 05:15:19;;;;;;;13.34;9.48;;;;;;;;;;358554;149;865068;-63
2022/06/12 05:16:29;;;;;;;16.11;9.82;;;;;;;;;;358370;147;866757;-61
2022/06/12 05:17:30;;;;;;;14.33;9.73;;;;;;;;;;352670;151;857902;-67
2022/06/12 05:18:32;;;;;;;10.95;9.26;;;;;;;;;;350766;152;857371;-63
2022/06/12 05:19:35;;;;;;;16.28;9.90;;;;;;;;;;351455;151;856834;-63
2022/06/12 05:20:37;;;;;;;13.94;8.07;;;;;;;;;;350946;150;859236;-60
2022/06/12 05:21:38;;;;;;;10.51;9.33;;;;;;;;;;350031;152;866285;-61
2022/06/12 05:22:40;;;;;;;14.24;9.03;;;;;;;;;;353141;151;857321;-59
2022/06/12 05:23:41;;;;;;;11.17;8.79;;;;;;;;;;351475;150;865052;-60
2022/06/12 05:24:45;;;;;;;12.57;9.53;;;;;;;;;;352114;151;857875;-58
2022/06/12 05:25:46;;;;;;;14.11;9.53;;;;;;;;;;351662;151;857367;-61
2022/06/12 05:26:48;;;;;;;19.81;9.79;;;;;;;;;;351676;151;857333;-63
2022/06/12 05:27:50;;;;;;;10.95;7.95;;;;;;;;;;348595;152;860600;-61
2022/06/12 05:28:52;;;;;;;11.13;9.11;;;;;;;;;;347472;152;857829;-63
2022/06/12 05:29:53;;;;;;;12.96;9.01;;;;;;;;;;346732;151;865148;-62
2022/06/12 05:30:55;;;;;;;14.68;8.91;;;;;;;;;;352848;151;865606;-62
2022/06/12 05:31:57;;;;;;;11.39;9.15;;;;;;;;;;342801;155;865097;-65
2022/06/12 05:32:59;;;;;;;11.45;8.15;;;;;;;;;;343794;154;864936;-60
2022/06/12 05:34:01;;;;;;;10.94;8.69;;;;;;;;;;345545;154;858960;-63
2022/06/12 05:36:29;;;;;;;10.34;8.66;;;;;;;;;;341606;154;857484;-59
2022/06/12 05:37:31;;;;;;;12.93;8.76;;;;;;;;;;341950;154;856377;-58
2022/06/12 05:38:32;;;;;;;11.53;8.69;;;;;;;;;;342232;155;856484;-60
2022/06/12 05:39:34;;;;;;;10.95;9.16;;;;;;;;;;340830;155;865018;-59
2022/06/12 05:40:36;;;;;;;14.00;8.81;;;;;;;;;;340426;155;859526;-61
2022/06/12 05:41:38;;;;;;;14.15;9.50;;;;;;;;;;340208;156;858523;-61
2022/06/12 05:42:40;;;;;;;10.65;8.75;;;;;;;;;;340174;156;857284;-61
2022/06/12 05:43:42;;;;;;;11.84;9.08;;;;;;;;;;340123;156;859381;-59
2022/06/12 05:44:43;;;;;;;13.94;9.40;;;;;;;;;;339633;156;858888;-62
2022/06/12 05:45:45;;;;;;;16.92;9.33;;;;;;;;;;340106;156;857257;-60
2022/06/12 05:46:47;;;;;;;10.05;8.45;;;;;;;;;;339765;156;857375;-60
2022/06/12 05:47:50;;;;;;;13.24;8.82;;;;;;;;;;339724;155;865193;-59
2022/06/12 05:48:52;;;;;;;14.07;9.77;;;;;;;;;;340583;156;865501;-60
2022/06/12 05:49:53;;;;;;;16.12;9.21;;;;;;;;;;339538;156;859365;-60
2022/06/12 05:50:56;;;;;;;12.92;9.33;;;;;;;;;;338964;156;865917;-60
2022/06/12 05:51:57;;;;;;;13.23;9.03;;;;;;;;;;328826;159;857326;-61
2022/06/12 05:52:59;;;;;;;14.39;8.72;;;;;;;;;;336531;157;857270;-62
2022/06/12 05:54:00;;;;;;;13.44;9.96;;;;;;;;;;341664;155;857490;-60
2022/06/12 05:55:02;;;;;;;13.92;8.92;;;;;;;;;;338251;154;857361;-59
2022/06/12 05:56:05;;;;;;;10.02;8.96;;;;;;;;;;339706;155;857376;-58
2022/06/12 05:57:07;;;;;;;17.05;9.45;;;;;;;;;;340171;155;856411;-57
2022/06/12 05:58:09;;;;;;;13.49;8.81;;;;;;;;;;341810;154;856378;-59
2022/06/12 05:59:10;;;;;;;14.68;9.12;;;;;;;;;;340773;155;857534;-58
2022/06/12 06:00:20;;;;;;;11.08;8.88;;;;;;;;;;339792;155;856479;-59
2022/06/12 06:01:19;;;;;;;13.07;9.31;;;;;;;;;;340962;155;857030;-59
2022/06/12 06:02:21;;;;;;;15.40;9.99;;;;;;;;;;338670;155;856572;-60
2022/06/12 06:03:23;;;;;;;10.50;8.97;;;;;;;;;;342104;155;856519;-66
2022/06/12 06:04:25;;;;;;;12.90;9.09;;;;;;;;;;338920;155;856810;-64
2022/06/12 06:05:26;;;;;;;12.03;8.92;;;;;;;;;;341647;155;856525;-64
2022/06/12 06:06:29;;;;;;;10.73;9.17;;;;;;;;;;340434;155;856495;-61
2022/06/12 06:07:30;;;;;;;10.57;7.74;;;;;;;;;;340639;155;856997;-62
2022/06/12 06:08:32;;;;;;;10.76;8.69;;;;;;;;;;341696;155;856381;-59
2022/06/12 06:09:34;;;;;;;13.70;9.16;;;;;;;;;;341465;156;856495;-59
2022/06/12 06:10:35;;;;;;;12.36;9.16;;;;;;;;;;339261;155;856707;-59
2022/06/12 06:11:37;;;;;;;11.20;9.25;;;;;;;;;;336009;156;856466;-60
2022/06/12 06:12:38;;;;;;;14.26;8.46;;;;;;;;;;334216;156;856393;-61
2022/06/12 06:13:40;;;;;;;11.07;9.07;;;;;;;;;;335967;157;856333;-60
2022/06/12 06:14:42;;;;;;;10.05;8.29;;;;;;;;;;335010;157;856514;-58
2022/06/12 06:15:45;;;;;;;11.92;9.19;;;;;;;;;;335799;156;856412;-59
2022/06/12 06:16:47;;;;;;;13.46;8.44;;;;;;;;;;336478;156;856522;-61
2022/06/12 06:17:49;;;;;;;11.07;8.64;;;;;;;;;;337532;159;856466;-58
2022/06/12 06:18:50;;;;;;;14.30;8.96;;;;;;;;;;337607;157;867469;-59
2022/06/12 06:19:52;;;;;;;9.85;8.09;;;;;;;;;;336710;159;857432;-58